sensor_id;sensor_type;location;lat;lon;timestamp;P1;durP1;ratioP1;P2;durP2;ratioP2
59127;SDS011;44912;52.754;5.994;2022-10-16T00:01:08;8.32;;;1.80;;
59127;SDS011;44912;52.754;5.994;2022-10-16T00:03:36;6.90;;;1.92;;
59127;SDS011;44912;52.754;5.994;2022-10-16T00:06:03;7.40;;;1.73;;
59127;SDS011;44912;52.754;5.994;2022-10-16T00:08:29;7.38;;;1.70;;
59127;SDS011;44912;52.754;5.994;2022-10-16T00:10:59;7.30;;;1.95;;
59127;SDS011;44912;52.754;5.994;2022-10-16T00:13:26;8.32;;;1.90;;
59127;SDS011;44912;52.754;5.994;2022-10-16T00:15:52;8.05;;;1.92;;
59127;SDS011;44912;52.754;5.994;2022-10-16T00:18:20;8.43;;;1.92;;
59127;SDS011;44912;52.754;5.994;2022-10-16T00:20:46;7.40;;;1.75;;
59127;SDS011;44912;52.754;5.994;2022-10-16T00:23:12;6.70;;;2.13;;
59127;SDS011;44912;52.754;5.994;2022-10-16T00:25:37;5.10;;;1.50;;
59127;SDS011;44912;52.754;5.994;2022-10-16T00:28:03;7.57;;;2.22;;
59127;SDS011;44912;52.754;5.994;2022-10-16T00:30:28;5.82;;;1.90;;
59127;SDS011;44912;52.754;5.994;2022-10-16T00:32:54;8.70;;;1.88;;
59127;SDS011;44912;52.754;5.994;2022-10-16T00:35:20;6.20;;;1.73;;
59127;SDS011;44912;52.754;5.994;2022-10-16T00:37:45;7.28;;;1.92;;
59127;SDS011;44912;52.754;5.994;2022-10-16T00:40:11;8.77;;;1.88;;
59127;SDS011;44912;52.754;5.994;2022-10-16T00:42:37;7.57;;;1.92;;
59127;SDS011;44912;52.754;5.994;2022-10-16T00:45:03;8.18;;;2.00;;
59127;SDS011;44912;52.754;5.994;2022-10-16T00:49:59;5.65;;;1.80;;
59127;SDS011;44912;52.754;5.994;2022-10-16T00:52:31;7.63;;;2.30;;
59127;SDS011;44912;52.754;5.994;2022-10-16T00:54:57;9.40;;;2.25;;
59127;SDS011;44912;52.754;5.994;2022-10-16T00:57:23;6.47;;;2.03;;
59127;SDS011;44912;52.754;5.994;2022-10-16T00:59:50;7.75;;;1.83;;
59127;SDS011;44912;52.754;5.994;2022-10-16T01:02:16;5.47;;;1.80;;
59127;SDS011;44912;52.754;5.994;2022-10-16T01:04:46;9.88;;;2.28;;
59127;SDS011;44912;52.754;5.994;2022-10-16T01:07:17;7.32;;;2.25;;
59127;SDS011;44912;52.754;5.994;2022-10-16T01:23:20;5.85;;;1.75;;
59127;SDS011;44912;52.754;5.994;2022-10-16T01:25:59;5.07;;;1.70;;
59127;SDS011;44912;52.754;5.994;2022-10-16T01:28:54;4.90;;;1.80;;
59127;SDS011;44912;52.754;5.994;2022-10-16T01:33:55;6.53;;;2.05;;
59127;SDS011;44912;52.754;5.994;2022-10-16T01:36:28;7.10;;;1.77;;
59127;SDS011;44912;52.754;5.994;2022-10-16T01:39:00;8.63;;;2.25;;
59127;SDS011;44912;52.754;5.994;2022-10-16T01:41:30;4.20;;;1.65;;
59127;SDS011;44912;52.754;5.994;2022-10-16T01:44:02;6.13;;;1.80;;
59127;SDS011;44912;52.754;5.994;2022-10-16T01:46:35;6.47;;;2.33;;
59127;SDS011;44912;52.754;5.994;2022-10-16T01:49:02;6.50;;;2.08;;
59127;SDS011;44912;52.754;5.994;2022-10-16T01:51:29;6.40;;;1.95;;
59127;SDS011;44912;52.754;5.994;2022-10-16T01:53:55;6.05;;;2.00;;
59127;SDS011;44912;52.754;5.994;2022-10-16T01:56:24;7.30;;;2.22;;
59127;SDS011;44912;52.754;5.994;2022-10-16T01:58:58;8.15;;;1.77;;
59127;SDS011;44912;52.754;5.994;2022-10-16T02:01:29;4.20;;;1.50;;
59127;SDS011;44912;52.754;5.994;2022-10-16T02:04:00;5.55;;;2.00;;
59127;SDS011;44912;52.754;5.994;2022-10-16T02:06:32;4.40;;;1.77;;
59127;SDS011;44912;52.754;5.994;2022-10-16T02:08:59;4.55;;;1.92;;
59127;SDS011;44912;52.754;5.994;2022-10-16T02:11:25;6.28;;;1.92;;
59127;SDS011;44912;52.754;5.994;2022-10-16T02:13:52;4.60;;;1.83;;
59127;SDS011;44912;52.754;5.994;2022-10-16T02:16:26;6.60;;;2.55;;
59127;SDS011;44912;52.754;5.994;2022-10-16T02:19:16;7.95;;;2.13;;
59127;SDS011;44912;52.754;5.994;2022-10-16T02:21:55;6.30;;;2.03;;
59127;SDS011;44912;52.754;5.994;2022-10-16T02:27:01;8.45;;;2.90;;
59127;SDS011;44912;52.754;5.994;2022-10-16T02:29:45;5.57;;;1.95;;
59127;SDS011;44912;52.754;5.994;2022-10-16T02:32:15;8.27;;;2.30;;
59127;SDS011;44912;52.754;5.994;2022-10-16T02:34:48;7.57;;;2.00;;
59127;SDS011;44912;52.754;5.994;2022-10-16T02:37:16;5.00;;;1.88;;
59127;SDS011;44912;52.754;5.994;2022-10-16T02:39:43;4.63;;;1.83;;
59127;SDS011;44912;52.754;5.994;2022-10-16T02:42:12;5.93;;;1.95;;
59127;SDS011;44912;52.754;5.994;2022-10-16T02:44:38;3.92;;;1.85;;
59127;SDS011;44912;52.754;5.994;2022-10-16T02:47:04;5.90;;;2.03;;
59127;SDS011;44912;52.754;5.994;2022-10-16T02:49:30;5.65;;;1.80;;
59127;SDS011;44912;52.754;5.994;2022-10-16T02:51:55;7.35;;;1.92;;
59127;SDS011;44912;52.754;5.994;2022-10-16T02:54:21;4.90;;;2.03;;
59127;SDS011;44912;52.754;5.994;2022-10-16T02:56:46;6.45;;;1.75;;
59127;SDS011;44912;52.754;5.994;2022-10-16T02:59:12;4.28;;;1.83;;
59127;SDS011;44912;52.754;5.994;2022-10-16T03:01:37;5.72;;;2.08;;
59127;SDS011;44912;52.754;5.994;2022-10-16T03:04:03;7.38;;;2.10;;
59127;SDS011;44912;52.754;5.994;2022-10-16T03:06:28;6.80;;;1.90;;
59127;SDS011;44912;52.754;5.994;2022-10-16T03:08:54;5.50;;;1.88;;
59127;SDS011;44912;52.754;5.994;2022-10-16T03:11:19;7.70;;;2.28;;
59127;SDS011;44912;52.754;5.994;2022-10-16T03:13:45;6.97;;;1.92;;
59127;SDS011;44912;52.754;5.994;2022-10-16T03:16:11;5.05;;;1.98;;
59127;SDS011;44912;52.754;5.994;2022-10-16T03:18:36;5.18;;;2.15;;
59127;SDS011;44912;52.754;5.994;2022-10-16T03:21:02;7.63;;;2.10;;
59127;SDS011;44912;52.754;5.994;2022-10-16T03:23:27;6.85;;;2.30;;
59127;SDS011;44912;52.754;5.994;2022-10-16T03:25:53;5.75;;;2.30;;
59127;SDS011;44912;52.754;5.994;2022-10-16T03:28:19;4.88;;;2.05;;
59127;SDS011;44912;52.754;5.994;2022-10-16T03:30:44;5.40;;;2.10;;
59127;SDS011;44912;52.754;5.994;2022-10-16T03:33:10;4.35;;;1.88;;
59127;SDS011;44912;52.754;5.994;2022-10-16T03:35:36;8.57;;;2.53;;
59127;SDS011;44912;52.754;5.994;2022-10-16T03:38:01;7.32;;;2.30;;
59127;SDS011;44912;52.754;5.994;2022-10-16T03:40:27;6.43;;;2.40;;
59127;SDS011;44912;52.754;5.994;2022-10-16T03:42:52;6.03;;;2.35;;
59127;SDS011;44912;52.754;5.994;2022-10-16T03:45:22;6.82;;;2.40;;
59127;SDS011;44912;52.754;5.994;2022-10-16T03:47:47;7.03;;;2.40;;
59127;SDS011;44912;52.754;5.994;2022-10-16T03:50:13;6.45;;;2.63;;
59127;SDS011;44912;52.754;5.994;2022-10-16T03:52:38;8.20;;;2.70;;
59127;SDS011;44912;52.754;5.994;2022-10-16T03:55:04;8.13;;;2.22;;
59127;SDS011;44912;52.754;5.994;2022-10-16T03:57:30;4.93;;;2.35;;
59127;SDS011;44912;52.754;5.994;2022-10-16T03:59:56;6.40;;;2.50;;
59127;SDS011;44912;52.754;5.994;2022-10-16T04:02:21;5.35;;;2.40;;
59127;SDS011;44912;52.754;5.994;2022-10-16T04:04:47;5.88;;;2.30;;
59127;SDS011;44912;52.754;5.994;2022-10-16T04:07:12;6.45;;;2.40;;
59127;SDS011;44912;52.754;5.994;2022-10-16T04:09:38;6.65;;;2.85;;
59127;SDS011;44912;52.754;5.994;2022-10-16T04:12:04;7.18;;;2.60;;
59127;SDS011;44912;52.754;5.994;2022-10-16T04:14:29;5.75;;;2.60;;
59127;SDS011;44912;52.754;5.994;2022-10-16T04:16:55;8.00;;;2.78;;
59127;SDS011;44912;52.754;5.994;2022-10-16T04:19:20;6.82;;;2.85;;
59127;SDS011;44912;52.754;5.994;2022-10-16T04:21:46;6.32;;;2.50;;
59127;SDS011;44912;52.754;5.994;2022-10-16T04:24:11;7.50;;;2.88;;
59127;SDS011;44912;52.754;5.994;2022-10-16T04:26:37;6.70;;;2.92;;
59127;SDS011;44912;52.754;5.994;2022-10-16T04:29:02;5.50;;;2.75;;
59127;SDS011;44912;52.754;5.994;2022-10-16T04:31:28;8.75;;;3.00;;
59127;SDS011;44912;52.754;5.994;2022-10-16T04:33:53;8.70;;;3.58;;
59127;SDS011;44912;52.754;5.994;2022-10-16T04:36:19;5.95;;;3.10;;
59127;SDS011;44912;52.754;5.994;2022-10-16T04:38:44;6.70;;;2.90;;
59127;SDS011;44912;52.754;5.994;2022-10-16T04:41:10;7.88;;;3.30;;
59127;SDS011;44912;52.754;5.994;2022-10-16T04:43:36;8.93;;;3.13;;
59127;SDS011;44912;52.754;5.994;2022-10-16T04:46:01;7.40;;;3.25;;
59127;SDS011;44912;52.754;5.994;2022-10-16T04:48:29;7.43;;;3.55;;
59127;SDS011;44912;52.754;5.994;2022-10-16T04:50:55;7.35;;;3.08;;
59127;SDS011;44912;52.754;5.994;2022-10-16T04:53:21;6.90;;;3.25;;
59127;SDS011;44912;52.754;5.994;2022-10-16T04:55:46;6.38;;;3.13;;
59127;SDS011;44912;52.754;5.994;2022-10-16T04:58:12;6.20;;;3.13;;
59127;SDS011;44912;52.754;5.994;2022-10-16T05:00:37;7.38;;;3.05;;
59127;SDS011;44912;52.754;5.994;2022-10-16T05:03:03;7.07;;;3.03;;
59127;SDS011;44912;52.754;5.994;2022-10-16T05:05:32;6.70;;;3.13;;
59127;SDS011;44912;52.754;5.994;2022-10-16T05:07:58;7.78;;;3.22;;
59127;SDS011;44912;52.754;5.994;2022-10-16T05:10:24;6.43;;;2.78;;
59127;SDS011;44912;52.754;5.994;2022-10-16T05:12:49;11.20;;;3.08;;
59127;SDS011;44912;52.754;5.994;2022-10-16T05:15:16;7.40;;;3.15;;
59127;SDS011;44912;52.754;5.994;2022-10-16T05:17:42;8.52;;;3.00;;
59127;SDS011;44912;52.754;5.994;2022-10-16T05:20:07;9.18;;;3.17;;
59127;SDS011;44912;52.754;5.994;2022-10-16T05:22:33;9.18;;;3.20;;
59127;SDS011;44912;52.754;5.994;2022-10-16T05:24:59;8.30;;;3.08;;
59127;SDS011;44912;52.754;5.994;2022-10-16T05:27:24;7.53;;;2.88;;
59127;SDS011;44912;52.754;5.994;2022-10-16T05:29:50;6.88;;;3.17;;
59127;SDS011;44912;52.754;5.994;2022-10-16T05:32:16;6.07;;;3.05;;
59127;SDS011;44912;52.754;5.994;2022-10-16T05:34:42;7.82;;;2.90;;
59127;SDS011;44912;52.754;5.994;2022-10-16T05:37:08;6.75;;;2.83;;
59127;SDS011;44912;52.754;5.994;2022-10-16T05:39:34;6.05;;;2.80;;
59127;SDS011;44912;52.754;5.994;2022-10-16T05:42:01;6.45;;;3.00;;
59127;SDS011;44912;52.754;5.994;2022-10-16T05:44:27;7.13;;;2.50;;
59127;SDS011;44912;52.754;5.994;2022-10-16T05:46:53;8.55;;;3.03;;
59127;SDS011;44912;52.754;5.994;2022-10-16T05:49:18;9.55;;;3.35;;
59127;SDS011;44912;52.754;5.994;2022-10-16T05:51:44;5.03;;;2.55;;
59127;SDS011;44912;52.754;5.994;2022-10-16T05:54:09;6.45;;;2.95;;
59127;SDS011;44912;52.754;5.994;2022-10-16T05:56:35;6.38;;;2.90;;
59127;SDS011;44912;52.754;5.994;2022-10-16T05:59:00;11.63;;;2.78;;
59127;SDS011;44912;52.754;5.994;2022-10-16T06:01:27;5.00;;;2.72;;
59127;SDS011;44912;52.754;5.994;2022-10-16T06:03:53;6.30;;;2.83;;
59127;SDS011;44912;52.754;5.994;2022-10-16T06:06:19;6.25;;;2.67;;
59127;SDS011;44912;52.754;5.994;2022-10-16T06:08:47;6.05;;;2.63;;
59127;SDS011;44912;52.754;5.994;2022-10-16T06:11:14;6.68;;;2.67;;
59127;SDS011;44912;52.754;5.994;2022-10-16T06:13:42;5.88;;;2.53;;
59127;SDS011;44912;52.754;5.994;2022-10-16T06:16:08;6.55;;;2.70;;
59127;SDS011;44912;52.754;5.994;2022-10-16T06:18:35;5.75;;;2.50;;
59127;SDS011;44912;52.754;5.994;2022-10-16T06:21:06;4.97;;;2.40;;
59127;SDS011;44912;52.754;5.994;2022-10-16T06:23:36;6.57;;;2.70;;
59127;SDS011;44912;52.754;5.994;2022-10-16T06:26:09;6.30;;;2.63;;
59127;SDS011;44912;52.754;5.994;2022-10-16T06:28:36;7.32;;;2.55;;
59127;SDS011;44912;52.754;5.994;2022-10-16T06:31:02;5.85;;;2.50;;
59127;SDS011;44912;52.754;5.994;2022-10-16T06:33:29;5.25;;;2.83;;
59127;SDS011;44912;52.754;5.994;2022-10-16T06:36:02;6.13;;;2.58;;
59127;SDS011;44912;52.754;5.994;2022-10-16T06:38:29;6.53;;;2.30;;
59127;SDS011;44912;52.754;5.994;2022-10-16T06:40:55;4.22;;;2.50;;
59127;SDS011;44912;52.754;5.994;2022-10-16T06:43:21;5.72;;;2.60;;
59127;SDS011;44912;52.754;5.994;2022-10-16T06:45:53;6.40;;;2.88;;
59127;SDS011;44912;52.754;5.994;2022-10-16T06:48:19;5.50;;;3.00;;
59127;SDS011;44912;52.754;5.994;2022-10-16T06:50:54;7.32;;;2.17;;
59127;SDS011;44912;52.754;5.994;2022-10-16T06:53:24;5.93;;;2.25;;
59127;SDS011;44912;52.754;5.994;2022-10-16T06:55:50;6.80;;;2.65;;
59127;SDS011;44912;52.754;5.994;2022-10-16T06:58:16;7.38;;;2.40;;
59127;SDS011;44912;52.754;5.994;2022-10-16T07:00:41;6.50;;;2.47;;
59127;SDS011;44912;52.754;5.994;2022-10-16T07:03:07;7.93;;;2.95;;
59127;SDS011;44912;52.754;5.994;2022-10-16T07:05:36;4.82;;;1.88;;
59127;SDS011;44912;52.754;5.994;2022-10-16T07:08:03;6.22;;;1.75;;
59127;SDS011;44912;52.754;5.994;2022-10-16T07:10:30;7.20;;;2.00;;
59127;SDS011;44912;52.754;5.994;2022-10-16T07:12:56;7.47;;;1.85;;
59127;SDS011;44912;52.754;5.994;2022-10-16T07:15:21;7.60;;;1.77;;
59127;SDS011;44912;52.754;5.994;2022-10-16T07:17:47;4.85;;;1.70;;
59127;SDS011;44912;52.754;5.994;2022-10-16T07:20:13;7.15;;;1.80;;
59127;SDS011;44912;52.754;5.994;2022-10-16T07:22:38;8.15;;;1.60;;
59127;SDS011;44912;52.754;5.994;2022-10-16T07:25:04;6.22;;;1.70;;
59127;SDS011;44912;52.754;5.994;2022-10-16T07:27:30;5.88;;;1.40;;
59127;SDS011;44912;52.754;5.994;2022-10-16T07:29:55;5.60;;;1.85;;
59127;SDS011;44912;52.754;5.994;2022-10-16T07:32:21;8.30;;;1.95;;
59127;SDS011;44912;52.754;5.994;2022-10-16T07:34:46;7.53;;;1.25;;
59127;SDS011;44912;52.754;5.994;2022-10-16T07:37:12;5.40;;;1.23;;
59127;SDS011;44912;52.754;5.994;2022-10-16T07:39:37;3.45;;;1.10;;
59127;SDS011;44912;52.754;5.994;2022-10-16T07:42:03;6.10;;;1.25;;
59127;SDS011;44912;52.754;5.994;2022-10-16T07:44:29;3.40;;;1.00;;
59127;SDS011;44912;52.754;5.994;2022-10-16T07:46:54;6.72;;;1.30;;
59127;SDS011;44912;52.754;5.994;2022-10-16T07:49:20;4.05;;;1.25;;
59127;SDS011;44912;52.754;5.994;2022-10-16T07:51:45;5.00;;;1.33;;
59127;SDS011;44912;52.754;5.994;2022-10-16T07:54:11;5.28;;;1.30;;
59127;SDS011;44912;52.754;5.994;2022-10-16T07:56:36;8.25;;;1.20;;
59127;SDS011;44912;52.754;5.994;2022-10-16T07:59:02;4.75;;;1.33;;
59127;SDS011;44912;52.754;5.994;2022-10-16T08:01:27;5.90;;;1.75;;
59127;SDS011;44912;52.754;5.994;2022-10-16T08:03:53;6.70;;;1.70;;
59127;SDS011;44912;52.754;5.994;2022-10-16T08:06:19;4.15;;;1.60;;
59127;SDS011;44912;52.754;5.994;2022-10-16T08:08:46;5.45;;;1.92;;
59127;SDS011;44912;52.754;5.994;2022-10-16T08:11:12;7.60;;;1.95;;
59127;SDS011;44912;52.754;5.994;2022-10-16T08:13:39;6.70;;;2.25;;
59127;SDS011;44912;52.754;5.994;2022-10-16T08:16:05;6.78;;;1.98;;
59127;SDS011;44912;52.754;5.994;2022-10-16T08:18:33;6.18;;;2.08;;
59127;SDS011;44912;52.754;5.994;2022-10-16T08:21:02;7.38;;;2.10;;
59127;SDS011;44912;52.754;5.994;2022-10-16T08:23:28;6.05;;;2.28;;
59127;SDS011;44912;52.754;5.994;2022-10-16T08:25:54;6.93;;;2.05;;
59127;SDS011;44912;52.754;5.994;2022-10-16T08:28:21;7.30;;;2.40;;
59127;SDS011;44912;52.754;5.994;2022-10-16T08:30:47;5.05;;;2.08;;
59127;SDS011;44912;52.754;5.994;2022-10-16T08:33:13;7.15;;;1.70;;
59127;SDS011;44912;52.754;5.994;2022-10-16T08:35:39;6.38;;;2.25;;
59127;SDS011;44912;52.754;5.994;2022-10-16T08:38:05;7.00;;;1.95;;
59127;SDS011;44912;52.754;5.994;2022-10-16T08:40:32;5.85;;;1.63;;
59127;SDS011;44912;52.754;5.994;2022-10-16T08:45:49;10.60;;;1.88;;
59127;SDS011;44912;52.754;5.994;2022-10-16T08:48:43;4.82;;;1.77;;
59127;SDS011;44912;52.754;5.994;2022-10-16T08:51:21;7.45;;;1.60;;
59127;SDS011;44912;52.754;5.994;2022-10-16T08:53:56;7.93;;;1.92;;
59127;SDS011;44912;52.754;5.994;2022-10-16T08:56:24;11.35;;;1.60;;
59127;SDS011;44912;52.754;5.994;2022-10-16T08:58:51;7.75;;;1.95;;
59127;SDS011;44912;52.754;5.994;2022-10-16T09:01:18;9.27;;;2.03;;
59127;SDS011;44912;52.754;5.994;2022-10-16T09:09:27;11.40;;;1.60;;
59127;SDS011;44912;52.754;5.994;2022-10-16T09:14:57;6.00;;;1.20;;
59127;SDS011;44912;52.754;5.994;2022-10-16T09:25:38;8.23;;;1.40;;
59127;SDS011;44912;52.754;5.994;2022-10-16T09:28:07;7.13;;;1.52;;
59127;SDS011;44912;52.754;5.994;2022-10-16T09:30:34;7.93;;;1.52;;
59127;SDS011;44912;52.754;5.994;2022-10-16T09:33:00;10.35;;;2.35;;
59127;SDS011;44912;52.754;5.994;2022-10-16T09:35:31;8.15;;;1.50;;
59127;SDS011;44912;52.754;5.994;2022-10-16T09:38:02;9.43;;;1.90;;
59127;SDS011;44912;52.754;5.994;2022-10-16T09:43:46;6.50;;;1.60;;
59127;SDS011;44912;52.754;5.994;2022-10-16T09:45:55;10.25;;;1.70;;
59127;SDS011;44912;52.754;5.994;2022-10-16T09:48:28;10.73;;;1.90;;
59127;SDS011;44912;52.754;5.994;2022-10-16T09:53:38;8.23;;;1.55;;
59127;SDS011;44912;52.754;5.994;2022-10-16T09:56:06;9.60;;;1.63;;
59127;SDS011;44912;52.754;5.994;2022-10-16T09:58:32;7.55;;;1.70;;
59127;SDS011;44912;52.754;5.994;2022-10-16T10:00:58;8.82;;;1.50;;
59127;SDS011;44912;52.754;5.994;2022-10-16T10:03:35;5.78;;;1.38;;
59127;SDS011;44912;52.754;5.994;2022-10-16T10:08:58;7.00;;;1.48;;
59127;SDS011;44912;52.754;5.994;2022-10-16T10:11:36;8.73;;;1.83;;
59127;SDS011;44912;52.754;5.994;2022-10-16T10:14:09;8.35;;;1.70;;
59127;SDS011;44912;52.754;5.994;2022-10-16T10:16:42;12.38;;;2.10;;
59127;SDS011;44912;52.754;5.994;2022-10-16T10:19:13;11.10;;;1.88;;
59127;SDS011;44912;52.754;5.994;2022-10-16T10:21:49;11.43;;;1.90;;
59127;SDS011;44912;52.754;5.994;2022-10-16T10:24:17;9.70;;;1.90;;
59127;SDS011;44912;52.754;5.994;2022-10-16T10:26:51;8.65;;;1.90;;
59127;SDS011;44912;52.754;5.994;2022-10-16T10:29:28;11.95;;;1.92;;
59127;SDS011;44912;52.754;5.994;2022-10-16T10:32:06;10.43;;;2.08;;
59127;SDS011;44912;52.754;5.994;2022-10-16T10:37:35;12.13;;;1.80;;
59127;SDS011;44912;52.754;5.994;2022-10-16T10:40:34;9.32;;;2.20;;
59127;SDS011;44912;52.754;5.994;2022-10-16T10:43:04;8.85;;;1.65;;
59127;SDS011;44912;52.754;5.994;2022-10-16T10:45:50;12.82;;;2.35;;
59127;SDS011;44912;52.754;5.994;2022-10-16T10:48:39;11.05;;;2.00;;
59127;SDS011;44912;52.754;5.994;2022-10-16T10:51:34;13.45;;;2.13;;
59127;SDS011;44912;52.754;5.994;2022-10-16T11:02:54;10.02;;;1.90;;
59127;SDS011;44912;52.754;5.994;2022-10-16T11:08:06;11.63;;;2.13;;
59127;SDS011;44912;52.754;5.994;2022-10-16T11:10:58;9.20;;;1.90;;
59127;SDS011;44912;52.754;5.994;2022-10-16T11:19:34;10.85;;;2.53;;
59127;SDS011;44912;52.754;5.994;2022-10-16T11:22:17;10.85;;;1.88;;
59127;SDS011;44912;52.754;5.994;2022-10-16T11:30:22;13.23;;;2.05;;
59127;SDS011;44912;52.754;5.994;2022-10-16T11:41:10;11.13;;;1.75;;
59127;SDS011;44912;52.754;5.994;2022-10-16T11:46:46;12.35;;;2.72;;
59127;SDS011;44912;52.754;5.994;2022-10-16T11:49:34;14.20;;;2.20;;
59127;SDS011;44912;52.754;5.994;2022-10-16T11:54:40;11.15;;;1.80;;
59127;SDS011;44912;52.754;5.994;2022-10-16T11:57:29;8.45;;;1.73;;
59127;SDS011;44912;52.754;5.994;2022-10-16T12:00:00;11.93;;;1.50;;
59127;SDS011;44912;52.754;5.994;2022-10-16T12:02:40;13.27;;;1.70;;
59127;SDS011;44912;52.754;5.994;2022-10-16T12:05:33;10.50;;;1.80;;
59127;SDS011;44912;52.754;5.994;2022-10-16T12:08:11;11.70;;;2.00;;
59127;SDS011;44912;52.754;5.994;2022-10-16T12:10:40;10.35;;;1.83;;
59127;SDS011;44912;52.754;5.994;2022-10-16T12:16:03;11.50;;;1.80;;
59127;SDS011;44912;52.754;5.994;2022-10-16T12:18:31;10.57;;;1.98;;
59127;SDS011;44912;52.754;5.994;2022-10-16T12:20:57;7.65;;;1.33;;
59127;SDS011;44912;52.754;5.994;2022-10-16T12:23:29;12.07;;;1.70;;
59127;SDS011;44912;52.754;5.994;2022-10-16T12:25:55;12.73;;;1.70;;
59127;SDS011;44912;52.754;5.994;2022-10-16T12:28:26;10.68;;;1.95;;
59127;SDS011;44912;52.754;5.994;2022-10-16T12:30:54;17.08;;;2.35;;
59127;SDS011;44912;52.754;5.994;2022-10-16T12:33:23;11.52;;;1.92;;
59127;SDS011;44912;52.754;5.994;2022-10-16T12:35:57;13.07;;;2.38;;
59127;SDS011;44912;52.754;5.994;2022-10-16T12:38:26;10.18;;;1.77;;
59127;SDS011;44912;52.754;5.994;2022-10-16T12:41:03;11.77;;;2.00;;
59127;SDS011;44912;52.754;5.994;2022-10-16T12:43:43;12.45;;;1.80;;
59127;SDS011;44912;52.754;5.994;2022-10-16T12:48:37;10.38;;;1.90;;
59127;SDS011;44912;52.754;5.994;2022-10-16T12:56:43;10.07;;;1.50;;
59127;SDS011;44912;52.754;5.994;2022-10-16T13:15:51;12.65;;;1.77;;
59127;SDS011;44912;52.754;5.994;2022-10-16T13:19:00;7.45;;;1.50;;
59127;SDS011;44912;52.754;5.994;2022-10-16T13:24:26;8.00;;;1.42;;
59127;SDS011;44912;52.754;5.994;2022-10-16T13:29:59;8.98;;;1.80;;
59127;SDS011;44912;52.754;5.994;2022-10-16T13:32:33;9.90;;;1.90;;
59127;SDS011;44912;52.754;5.994;2022-10-16T13:34:58;10.60;;;1.67;;
59127;SDS011;44912;52.754;5.994;2022-10-16T13:37:25;10.25;;;1.80;;
59127;SDS011;44912;52.754;5.994;2022-10-16T13:40:01;8.18;;;1.30;;
59127;SDS011;44912;52.754;5.994;2022-10-16T13:42:42;9.77;;;1.73;;
59127;SDS011;44912;52.754;5.994;2022-10-16T13:45:17;9.52;;;1.73;;
59127;SDS011;44912;52.754;5.994;2022-10-16T13:47:47;8.52;;;1.40;;
59127;SDS011;44912;52.754;5.994;2022-10-16T13:50:13;11.68;;;1.80;;
59127;SDS011;44912;52.754;5.994;2022-10-16T13:52:41;12.98;;;1.80;;
59127;SDS011;44912;52.754;5.994;2022-10-16T13:55:14;12.95;;;2.10;;
59127;SDS011;44912;52.754;5.994;2022-10-16T13:57:42;8.57;;;1.27;;
59127;SDS011;44912;52.754;5.994;2022-10-16T14:00:18;12.90;;;1.70;;
59127;SDS011;44912;52.754;5.994;2022-10-16T14:02:45;9.10;;;1.60;;
59127;SDS011;44912;52.754;5.994;2022-10-16T14:05:26;10.68;;;1.80;;
59127;SDS011;44912;52.754;5.994;2022-10-16T14:07:51;10.15;;;1.90;;
59127;SDS011;44912;52.754;5.994;2022-10-16T14:10:28;9.80;;;1.90;;
59127;SDS011;44912;52.754;5.994;2022-10-16T14:12:57;9.52;;;1.70;;
59127;SDS011;44912;52.754;5.994;2022-10-16T14:15:28;9.50;;;1.17;;
59127;SDS011;44912;52.754;5.994;2022-10-16T14:17:55;10.80;;;1.80;;
59127;SDS011;44912;52.754;5.994;2022-10-16T14:20:24;7.72;;;1.20;;
59127;SDS011;44912;52.754;5.994;2022-10-16T14:23:02;10.00;;;1.88;;
59127;SDS011;44912;52.754;5.994;2022-10-16T14:25:30;11.38;;;1.55;;
59127;SDS011;44912;52.754;5.994;2022-10-16T14:30:25;11.98;;;1.73;;
59127;SDS011;44912;52.754;5.994;2022-10-16T14:32:55;12.77;;;1.77;;
59127;SDS011;44912;52.754;5.994;2022-10-16T14:35:22;11.73;;;2.03;;
59127;SDS011;44912;52.754;5.994;2022-10-16T14:37:56;9.95;;;1.92;;
59127;SDS011;44912;52.754;5.994;2022-10-16T14:40:25;9.00;;;1.45;;
59127;SDS011;44912;52.754;5.994;2022-10-16T14:42:53;11.35;;;1.67;;
59127;SDS011;44912;52.754;5.994;2022-10-16T14:45:24;9.18;;;1.42;;
59127;SDS011;44912;52.754;5.994;2022-10-16T14:47:52;14.13;;;1.77;;
59127;SDS011;44912;52.754;5.994;2022-10-16T14:50:21;12.88;;;1.55;;
59127;SDS011;44912;52.754;5.994;2022-10-16T14:52:46;10.43;;;1.83;;
59127;SDS011;44912;52.754;5.994;2022-10-16T14:55:12;13.00;;;1.65;;
59127;SDS011;44912;52.754;5.994;2022-10-16T14:57:38;9.52;;;1.55;;
59127;SDS011;44912;52.754;5.994;2022-10-16T15:00:23;14.10;;;1.67;;
59127;SDS011;44912;52.754;5.994;2022-10-16T15:02:49;8.75;;;1.45;;
59127;SDS011;44912;52.754;5.994;2022-10-16T15:05:17;9.95;;;1.52;;
59127;SDS011;44912;52.754;5.994;2022-10-16T15:07:44;9.27;;;1.33;;
59127;SDS011;44912;52.754;5.994;2022-10-16T15:10:11;11.52;;;1.60;;
59127;SDS011;44912;52.754;5.994;2022-10-16T15:12:38;9.55;;;1.50;;
59127;SDS011;44912;52.754;5.994;2022-10-16T15:17:47;10.35;;;1.30;;
59127;SDS011;44912;52.754;5.994;2022-10-16T15:20:17;7.45;;;1.13;;
59127;SDS011;44912;52.754;5.994;2022-10-16T15:22:42;9.93;;;1.58;;
59127;SDS011;44912;52.754;5.994;2022-10-16T15:25:11;7.47;;;1.00;;
59127;SDS011;44912;52.754;5.994;2022-10-16T15:27:44;10.07;;;1.42;;
59127;SDS011;44912;52.754;5.994;2022-10-16T15:30:10;9.80;;;1.42;;
59127;SDS011;44912;52.754;5.994;2022-10-16T15:32:36;10.35;;;1.35;;
59127;SDS011;44912;52.754;5.994;2022-10-16T15:35:01;9.57;;;1.38;;
59127;SDS011;44912;52.754;5.994;2022-10-16T15:37:27;8.90;;;1.63;;
59127;SDS011;44912;52.754;5.994;2022-10-16T15:39:52;9.15;;;1.40;;
59127;SDS011;44912;52.754;5.994;2022-10-16T15:42:18;11.02;;;1.58;;
59127;SDS011;44912;52.754;5.994;2022-10-16T15:44:43;8.90;;;1.25;;
59127;SDS011;44912;52.754;5.994;2022-10-16T15:47:09;11.55;;;1.60;;
59127;SDS011;44912;52.754;5.994;2022-10-16T15:49:34;8.40;;;1.35;;
59127;SDS011;44912;52.754;5.994;2022-10-16T15:52:00;14.05;;;3.80;;
59127;SDS011;44912;52.754;5.994;2022-10-16T15:54:25;15.50;;;4.00;;
59127;SDS011;44912;52.754;5.994;2022-10-16T15:56:51;18.88;;;8.70;;
59127;SDS011;44912;52.754;5.994;2022-10-16T15:59:16;14.48;;;4.78;;
59127;SDS011;44912;52.754;5.994;2022-10-16T16:01:42;11.05;;;3.67;;
59127;SDS011;44912;52.754;5.994;2022-10-16T16:04:07;13.70;;;2.67;;
59127;SDS011;44912;52.754;5.994;2022-10-16T16:06:33;10.90;;;2.03;;
59127;SDS011;44912;52.754;5.994;2022-10-16T16:09:02;12.02;;;3.60;;
59127;SDS011;44912;52.754;5.994;2022-10-16T16:11:28;13.23;;;3.75;;
59127;SDS011;44912;52.754;5.994;2022-10-16T16:13:56;14.98;;;3.85;;
59127;SDS011;44912;52.754;5.994;2022-10-16T16:16:22;12.43;;;3.50;;
59127;SDS011;44912;52.754;5.994;2022-10-16T16:18:48;14.50;;;2.60;;
59127;SDS011;44912;52.754;5.994;2022-10-16T16:21:17;9.48;;;2.28;;
59127;SDS011;44912;52.754;5.994;2022-10-16T16:23:43;9.85;;;1.50;;
59127;SDS011;44912;52.754;5.994;2022-10-16T16:26:13;9.82;;;1.80;;
59127;SDS011;44912;52.754;5.994;2022-10-16T16:28:41;9.10;;;1.45;;
59127;SDS011;44912;52.754;5.994;2022-10-16T16:31:08;10.02;;;1.85;;
59127;SDS011;44912;52.754;5.994;2022-10-16T16:33:34;11.05;;;1.70;;
59127;SDS011;44912;52.754;5.994;2022-10-16T16:36:00;12.02;;;1.95;;
59127;SDS011;44912;52.754;5.994;2022-10-16T16:38:28;7.78;;;1.60;;
59127;SDS011;44912;52.754;5.994;2022-10-16T16:40:54;10.88;;;1.50;;
59127;SDS011;44912;52.754;5.994;2022-10-16T16:43:26;10.10;;;1.92;;
59127;SDS011;44912;52.754;5.994;2022-10-16T16:45:53;10.98;;;1.70;;
59127;SDS011;44912;52.754;5.994;2022-10-16T16:48:19;12.18;;;2.08;;
59127;SDS011;44912;52.754;5.994;2022-10-16T16:50:47;8.77;;;1.50;;
59127;SDS011;44912;52.754;5.994;2022-10-16T16:53:13;8.68;;;1.40;;
59127;SDS011;44912;52.754;5.994;2022-10-16T16:55:39;9.60;;;1.60;;
59127;SDS011;44912;52.754;5.994;2022-10-16T16:58:04;12.63;;;1.63;;
59127;SDS011;44912;52.754;5.994;2022-10-16T17:00:30;7.63;;;1.40;;
59127;SDS011;44912;52.754;5.994;2022-10-16T17:02:56;9.88;;;1.92;;